sensor_id;sensor_type;location;lat;lon;timestamp;pressure;altitude;pressure_sealevel;temperature;humidity
71964;BME280;59834;52.124;5.422;2023-02-16T00:01:25;102429.59;;;4.66;92.50
71964;BME280;59834;52.124;5.422;2023-02-16T00:03:53;102437.38;;;4.66;92.80
71964;BME280;59834;52.124;5.422;2023-02-16T00:06:21;102427.03;;;4.65;93.07
71964;BME280;59834;52.124;5.422;2023-02-16T00:08:50;102426.16;;;4.64;93.13
71964;BME280;59834;52.124;5.422;2023-02-16T00:11:27;102432.25;;;4.63;92.83
71964;BME280;59834;52.124;5.422;2023-02-16T00:14:13;102436.53;;;4.64;93.32
71964;BME280;59834;52.124;5.422;2023-02-16T00:16:40;102430.50;;;4.62;93.10
71964;BME280;59834;52.124;5.422;2023-02-16T00:19:16;102431.38;;;4.61;92.90
71964;BME280;59834;52.124;5.422;2023-02-16T00:21:43;102435.69;;;4.62;93.13
71964;BME280;59834;52.124;5.422;2023-02-16T00:24:10;102427.06;;;4.62;93.94
71964;BME280;59834;52.124;5.422;2023-02-16T00:26:50;102426.28;;;4.57;93.35
71964;BME280;59834;52.124;5.422;2023-02-16T00:29:36;102434.06;;;4.55;93.30
71964;BME280;59834;52.124;5.422;2023-02-16T00:32:04;102430.66;;;4.53;93.42
71964;BME280;59834;52.124;5.422;2023-02-16T00:34:40;102432.34;;;4.54;93.79
71964;BME280;59834;52.124;5.422;2023-02-16T00:37:09;102427.19;;;4.51;93.92
71964;BME280;59834;52.124;5.422;2023-02-16T00:39:37;102421.16;;;4.51;93.65
71964;BME280;59834;52.124;5.422;2023-02-16T00:42:28;102422.00;;;4.51;93.71
71964;BME280;59834;52.124;5.422;2023-02-16T00:45:00;102426.34;;;4.49;93.38
71964;BME280;59834;52.124;5.422;2023-02-16T00:47:33;102416.88;;;4.49;93.75
71964;BME280;59834;52.124;5.422;2023-02-16T00:50:25;102419.47;;;4.49;93.38
71964;BME280;59834;52.124;5.422;2023-02-16T00:52:56;102412.56;;;4.47;93.74
71964;BME280;59834;52.124;5.422;2023-02-16T00:55:30;102420.38;;;4.44;94.27
71964;BME280;59834;52.124;5.422;2023-02-16T01:00:54;102420.41;;;4.41;94.66
71964;BME280;59834;52.124;5.422;2023-02-16T01:30:16;102405.88;;;4.28;94.67
71964;BME280;59834;52.124;5.422;2023-02-16T01:33:37;102405.94;;;4.26;95.58
71964;BME280;59834;52.124;5.422;2023-02-16T01:36:44;102398.19;;;4.21;95.23
71964;BME280;59834;52.124;5.422;2023-02-16T01:53:59;102383.50;;;4.22;95.79
71964;BME280;59834;52.124;5.422;2023-02-16T02:02:01;102380.94;;;4.19;95.53
71964;BME280;59834;52.124;5.422;2023-02-16T02:17:43;102360.75;;;4.42;95.80
71964;BME280;59834;52.124;5.422;2023-02-16T02:46:27;102344.03;;;4.66;94.44
71964;BME280;59834;52.124;5.422;2023-02-16T02:49:05;102336.25;;;4.66;94.00
71964;BME280;59834;52.124;5.422;2023-02-16T03:07:55;102317.16;;;4.70;93.56
71964;BME280;59834;52.124;5.422;2023-02-16T03:11:08;102319.72;;;4.72;93.60
71964;BME280;59834;52.124;5.422;2023-02-16T03:25:36;102306.78;;;4.70;93.66
71964;BME280;59834;52.124;5.422;2023-02-16T03:32:20;102305.00;;;4.72;93.88
71964;BME280;59834;52.124;5.422;2023-02-16T03:35:34;102309.31;;;4.73;92.96
71964;BME280;59834;52.124;5.422;2023-02-16T03:38:43;102312.72;;;4.76;93.39
71964;BME280;59834;52.124;5.422;2023-02-16T03:42:02;102317.03;;;4.78;93.22
71964;BME280;59834;52.124;5.422;2023-02-16T03:45:06;102315.28;;;4.79;93.40
71964;BME280;59834;52.124;5.422;2023-02-16T03:47:49;102303.16;;;4.79;93.17
71964;BME280;59834;52.124;5.422;2023-02-16T03:50:21;102317.88;;;4.80;93.28
71964;BME280;59834;52.124;5.422;2023-02-16T03:53:11;102309.19;;;4.81;93.18
71964;BME280;59834;52.124;5.422;2023-02-16T03:56:17;102312.63;;;4.82;92.95
71964;BME280;59834;52.124;5.422;2023-02-16T04:03:02;102318.63;;;4.85;93.49
71964;BME280;59834;52.124;5.422;2023-02-16T04:14:12;102327.22;;;4.89;93.08
71964;BME280;59834;52.124;5.422;2023-02-16T04:17:01;102328.06;;;4.91;92.67
71964;BME280;59834;52.124;5.422;2023-02-16T04:19:32;102324.59;;;4.92;93.08
71964;BME280;59834;52.124;5.422;2023-02-16T04:22:18;102322.81;;;4.94;92.30
71964;BME280;59834;52.124;5.422;2023-02-16T04:24:55;102326.28;;;4.94;92.99
71964;BME280;59834;52.124;5.422;2023-02-16T04:27:54;102323.69;;;4.94;92.93
71964;BME280;59834;52.124;5.422;2023-02-16T04:30:44;102319.34;;;4.95;92.98
71964;BME280;59834;52.124;5.422;2023-02-16T05:01:56;102311.56;;;4.96;92.89
71964;BME280;59834;52.124;5.422;2023-02-16T05:04:36;102313.25;;;4.97;92.84
71964;BME280;59834;52.124;5.422;2023-02-16T05:10:51;102305.44;;;4.99;93.07
71964;BME280;59834;52.124;5.422;2023-02-16T05:17:50;102296.78;;;5.00;93.29
71964;BME280;59834;52.124;5.422;2023-02-16T05:20:36;102292.47;;;4.99;93.30
71964;BME280;59834;52.124;5.422;2023-02-16T05:24:11;102289.84;;;4.99;93.61
71964;BME280;59834;52.124;5.422;2023-02-16T05:26:58;102288.19;;;4.96;93.34
71964;BME280;59834;52.124;5.422;2023-02-16T05:29:57;102293.34;;;4.98;93.52
71964;BME280;59834;52.124;5.422;2023-02-16T05:32:49;102291.59;;;4.99;93.55
71964;BME280;59834;52.124;5.422;2023-02-16T05:35:23;102280.38;;;4.98;93.49
71964;BME280;59834;52.124;5.422;2023-02-16T05:37:49;102276.06;;;4.97;93.67
71964;BME280;59834;52.124;5.422;2023-02-16T05:40:16;102280.38;;;4.98;93.68
71964;BME280;59834;52.124;5.422;2023-02-16T05:42:42;102287.31;;;4.97;94.06
71964;BME280;59834;52.124;5.422;2023-02-16T05:45:09;102289.91;;;4.96;93.51
71964;BME280;59834;52.124;5.422;2023-02-16T05:47:36;102292.50;;;4.96;93.71
71964;BME280;59834;52.124;5.422;2023-02-16T05:50:02;102298.59;;;4.96;93.82
71964;BME280;59834;52.124;5.422;2023-02-16T05:52:33;102302.03;;;4.97;93.95
71964;BME280;59834;52.124;5.422;2023-02-16T05:54:59;102298.53;;;4.98;93.72
71964;BME280;59834;52.124;5.422;2023-02-16T05:57:26;102291.66;;;4.97;93.36
71964;BME280;59834;52.124;5.422;2023-02-16T05:59:52;102275.22;;;4.96;93.03
71964;BME280;59834;52.124;5.422;2023-02-16T06:02:19;102295.09;;;4.96;94.09
71964;BME280;59834;52.124;5.422;2023-02-16T06:04:46;102298.59;;;4.95;93.32
71964;BME280;59834;52.124;5.422;2023-02-16T06:07:14;102299.44;;;4.95;94.01
71964;BME280;59834;52.124;5.422;2023-02-16T06:09:40;102288.25;;;4.93;94.07
71964;BME280;59834;52.124;5.422;2023-02-16T06:12:07;102290.00;;;4.93;93.96
71964;BME280;59834;52.124;5.422;2023-02-16T06:14:33;102284.81;;;4.93;93.98
71964;BME280;59834;52.124;5.422;2023-02-16T06:17:00;102293.44;;;4.93;94.85
71964;BME280;59834;52.124;5.422;2023-02-16T06:19:30;102302.94;;;4.94;93.95
71964;BME280;59834;52.124;5.422;2023-02-16T06:22:09;102297.72;;;4.94;93.90
71964;BME280;59834;52.124;5.422;2023-02-16T06:24:59;102294.28;;;4.92;94.37
71964;BME280;59834;52.124;5.422;2023-02-16T06:28:02;102308.16;;;4.93;93.83
71964;BME280;59834;52.124;5.422;2023-02-16T06:30:48;102309.88;;;4.92;93.79
71964;BME280;59834;52.124;5.422;2023-02-16T06:37:20;102305.56;;;4.93;94.64
71964;BME280;59834;52.124;5.422;2023-02-16T06:47:54;102311.56;;;4.96;94.26
71964;BME280;59834;52.124;5.422;2023-02-16T06:59:14;102294.19;;;4.99;93.85
71964;BME280;59834;52.124;5.422;2023-02-16T07:01:47;102301.97;;;5.00;94.47
71964;BME280;59834;52.124;5.422;2023-02-16T07:12:51;102302.69;;;5.10;94.76
71964;BME280;59834;52.124;5.422;2023-02-16T07:27:52;102311.03;;;5.27;94.41
71964;BME280;59834;52.124;5.422;2023-02-16T07:30:45;102325.66;;;5.30;93.81
71964;BME280;59834;52.124;5.422;2023-02-16T07:33:57;102317.88;;;5.31;94.30
71964;BME280;59834;52.124;5.422;2023-02-16T07:40:13;102322.91;;;5.39;93.68
71964;BME280;59834;52.124;5.422;2023-02-16T07:43:16;102326.34;;;5.41;93.51
71964;BME280;59834;52.124;5.422;2023-02-16T07:46:26;102335.84;;;5.43;93.81
71964;BME280;59834;52.124;5.422;2023-02-16T07:49:03;102330.53;;;5.48;94.22
71964;BME280;59834;52.124;5.422;2023-02-16T07:52:13;102335.69;;;5.50;94.10
71964;BME280;59834;52.124;5.422;2023-02-16T07:59:15;102336.47;;;5.55;93.41
71964;BME280;59834;52.124;5.422;2023-02-16T08:02:14;102333.84;;;5.56;93.99
71964;BME280;59834;52.124;5.422;2023-02-16T08:06:05;102341.56;;;5.59;93.60
71964;BME280;59834;52.124;5.422;2023-02-16T08:09:15;102349.31;;;5.62;93.82
71964;BME280;59834;52.124;5.422;2023-02-16T08:31:23;102356.66;;;5.87;92.87
71964;BME280;59834;52.124;5.422;2023-02-16T08:34:24;102355.72;;;5.89;92.51
71964;BME280;59834;52.124;5.422;2023-02-16T08:38:10;102361.72;;;5.95;93.04
71964;BME280;59834;52.124;5.422;2023-02-16T08:41:19;102363.41;;;5.97;93.48
71964;BME280;59834;52.124;5.422;2023-02-16T08:47:18;102359.03;;;5.99;93.45
71964;BME280;59834;52.124;5.422;2023-02-16T08:50:26;102361.56;;;6.04;93.61
71964;BME280;59834;52.124;5.422;2023-02-16T08:57:10;102360.66;;;6.03;92.76
71964;BME280;59834;52.124;5.422;2023-02-16T09:15:10;102375.25;;;6.12;94.54
71964;BME280;59834;52.124;5.422;2023-02-16T09:17:50;102378.75;;;6.09;95.51
71964;BME280;59834;52.124;5.422;2023-02-16T09:20:24;102371.91;;;6.05;96.86
71964;BME280;59834;52.124;5.422;2023-02-16T09:27:27;102380.69;;;6.00;97.59
71964;BME280;59834;52.124;5.422;2023-02-16T09:47:08;102366.03;;;5.97;100.00
71964;BME280;59834;52.124;5.422;2023-02-16T10:47:44;102370.72;;;6.60;100.00
71964;BME280;59834;52.124;5.422;2023-02-16T11:14:51;102360.72;;;7.17;100.00
71964;BME280;59834;52.124;5.422;2023-02-16T11:17:19;102365.78;;;7.23;100.00
71964;BME280;59834;52.124;5.422;2023-02-16T11:19:53;102353.59;;;7.25;100.00
71964;BME280;59834;52.124;5.422;2023-02-16T11:22:35;102340.44;;;7.29;100.00
71964;BME280;59834;52.124;5.422;2023-02-16T11:25:32;102336.06;;;7.31;100.00
71964;BME280;59834;52.124;5.422;2023-02-16T11:28:00;102341.13;;;7.36;100.00
71964;BME280;59834;52.124;5.422;2023-02-16T11:30:41;102336.69;;;7.41;100.00
71964;BME280;59834;52.124;5.422;2023-02-16T11:33:23;102334.88;;;7.43;100.00
71964;BME280;59834;52.124;5.422;2023-02-16T11:35:52;102330.44;;;7.47;100.00
71964;BME280;59834;52.124;5.422;2023-02-16T11:38:32;102327.66;;;7.53;100.00
71964;BME280;59834;52.124;5.422;2023-02-16T11:41:02;102334.56;;;7.55;100.00
71964;BME280;59834;52.124;5.422;2023-02-16T11:43:31;102323.16;;;7.60;100.00
71964;BME280;59834;52.124;5.422;2023-02-16T11:46:05;102318.47;;;7.71;100.00
71964;BME280;59834;52.124;5.422;2023-02-16T11:48:33;102323.59;;;7.75;100.00
71964;BME280;59834;52.124;5.422;2023-02-16T11:51:03;102321.84;;;7.74;100.00
71964;BME280;59834;52.124;5.422;2023-02-16T11:53:33;102318.41;;;7.74;100.00
71964;BME280;59834;52.124;5.422;2023-02-16T11:56:26;102315.00;;;7.72;100.00
71964;BME280;59834;52.124;5.422;2023-02-16T11:59:14;102320.91;;;7.78;100.00
71964;BME280;59834;52.124;5.422;2023-02-16T12:01:52;102317.22;;;7.86;100.00
71964;BME280;59834;52.124;5.422;2023-02-16T12:07:30;102314.28;;;7.96;100.00
71964;BME280;59834;52.124;5.422;2023-02-16T12:10:11;102297.63;;;8.02;100.00
71964;BME280;59834;52.124;5.422;2023-02-16T12:15:17;102291.09;;;8.17;100.00
71964;BME280;59834;52.124;5.422;2023-02-16T12:27:49;102263.59;;;8.63;99.48
71964;BME280;59834;52.124;5.422;2023-02-16T12:40:32;102233.38;;;9.07;98.26
71964;BME280;59834;52.124;5.422;2023-02-16T12:45:54;102223.66;;;9.11;98.08
71964;BME280;59834;52.124;5.422;2023-02-16T12:50:57;102216.44;;;9.19;97.29
71964;BME280;59834;52.124;5.422;2023-02-16T12:56:24;102205.50;;;9.31;96.68
71964;BME280;59834;52.124;5.422;2023-02-16T12:59:00;102203.81;;;9.30;96.36
71964;BME280;59834;52.124;5.422;2023-02-16T13:01:29;102211.66;;;9.54;96.35
71964;BME280;59834;52.124;5.422;2023-02-16T13:04:14;102207.50;;;9.48;95.77
71964;BME280;59834;52.124;5.422;2023-02-16T13:06:58;102203.13;;;9.49;95.94
71964;BME280;59834;52.124;5.422;2023-02-16T13:09:46;102212.69;;;9.50;95.64
71964;BME280;59834;52.124;5.422;2023-02-16T13:12:31;102203.38;;;9.42;95.07
71964;BME280;59834;52.124;5.422;2023-02-16T13:15:19;102207.50;;;9.25;95.61
71964;BME280;59834;52.124;5.422;2023-02-16T13:17:56;102203.22;;;9.22;96.32
71964;BME280;59834;52.124;5.422;2023-02-16T13:20:26;102193.41;;;9.29;95.71
71964;BME280;59834;52.124;5.422;2023-02-16T13:26:03;102193.47;;;9.27;96.07
71964;BME280;59834;52.124;5.422;2023-02-16T13:29:00;102194.00;;;9.37;96.61
71964;BME280;59834;52.124;5.422;2023-02-16T13:31:42;102180.97;;;9.35;95.92
71964;BME280;59834;52.124;5.422;2023-02-16T13:37:16;102177.47;;;9.36;95.99
71964;BME280;59834;52.124;5.422;2023-02-16T13:45:51;102147.56;;;9.67;94.24
71964;BME280;59834;52.124;5.422;2023-02-16T13:48:26;102157.91;;;9.70;93.77
71964;BME280;59834;52.124;5.422;2023-02-16T13:50:59;102141.41;;;9.68;93.54
71964;BME280;59834;52.124;5.422;2023-02-16T13:53:33;102137.75;;;9.72;93.36
71964;BME280;59834;52.124;5.422;2023-02-16T13:58:42;102130.94;;;9.68;93.36
71964;BME280;59834;52.124;5.422;2023-02-16T14:01:40;102130.94;;;9.68;92.67
71964;BME280;59834;52.124;5.422;2023-02-16T14:09:45;102132.63;;;9.69;91.25
71964;BME280;59834;52.124;5.422;2023-02-16T14:12:17;102131.69;;;9.72;91.91
71964;BME280;59834;52.124;5.422;2023-02-16T14:22:52;102127.84;;;9.80;91.50
71964;BME280;59834;52.124;5.422;2023-02-16T14:38:35;102100.81;;;10.02;90.52
71964;BME280;59834;52.124;5.422;2023-02-16T14:41:10;102104.25;;;10.04;91.31
71964;BME280;59834;52.124;5.422;2023-02-16T14:43:45;102093.69;;;10.05;90.76
71964;BME280;59834;52.124;5.422;2023-02-16T14:57:32;102100.44;;;9.90;91.21
71964;BME280;59834;52.124;5.422;2023-02-16T15:00:10;102103.97;;;9.89;91.33
71964;BME280;59834;52.124;5.422;2023-02-16T15:02:41;102105.78;;;9.87;89.92
71964;BME280;59834;52.124;5.422;2023-02-16T15:05:25;102097.00;;;9.88;90.39
71964;BME280;59834;52.124;5.422;2023-02-16T15:08:18;102100.44;;;9.90;90.26
71964;BME280;59834;52.124;5.422;2023-02-16T15:10:49;102092.50;;;9.92;89.94
71964;BME280;59834;52.124;5.422;2023-02-16T15:13:27;102098.66;;;9.91;90.17
71964;BME280;59834;52.124;5.422;2023-02-16T15:15:56;102107.66;;;9.84;90.93
71964;BME280;59834;52.124;5.422;2023-02-16T15:18:27;102100.13;;;9.76;91.32
71964;BME280;59834;52.124;5.422;2023-02-16T15:20:56;102105.59;;;9.70;91.92
71964;BME280;59834;52.124;5.422;2023-02-16T15:23:26;102106.75;;;9.63;92.63
71964;BME280;59834;52.124;5.422;2023-02-16T15:26:01;102104.50;;;9.54;93.72
71964;BME280;59834;52.124;5.422;2023-02-16T15:28:28;102105.59;;;9.48;94.36
71964;BME280;59834;52.124;5.422;2023-02-16T15:30:58;102110.16;;;9.43;95.35
71964;BME280;59834;52.124;5.422;2023-02-16T15:33:31;102107.69;;;9.38;96.47
71964;BME280;59834;52.124;5.422;2023-02-16T15:36:00;102102.72;;;9.32;96.53
71964;BME280;59834;52.124;5.422;2023-02-16T15:38:32;102106.44;;;9.25;96.93
71964;BME280;59834;52.124;5.422;2023-02-16T15:41:01;102110.09;;;9.21;98.40
71964;BME280;59834;52.124;5.422;2023-02-16T15:46:02;102112.88;;;9.16;99.33
71964;BME280;59834;52.124;5.422;2023-02-16T15:48:31;102105.97;;;9.15;99.47
71964;BME280;59834;52.124;5.422;2023-02-16T15:56:25;102106.47;;;9.02;100.00
71964;BME280;59834;52.124;5.422;2023-02-16T15:58:55;102104.88;;;8.97;100.00
71964;BME280;59834;52.124;5.422;2023-02-16T16:01:26;102102.38;;;8.94;100.00
71964;BME280;59834;52.124;5.422;2023-02-16T16:04:01;102101.69;;;8.89;100.00
71964;BME280;59834;52.124;5.422;2023-02-16T16:06:33;102094.09;;;8.83;100.00
71964;BME280;59834;52.124;5.422;2023-02-16T16:09:00;102090.00;;;8.76;100.00
71964;BME280;59834;52.124;5.422;2023-02-16T16:11:27;102089.19;;;8.74;100.00
71964;BME280;59834;52.124;5.422;2023-02-16T16:13:54;102087.59;;;8.70;100.00
71964;BME280;59834;52.124;5.422;2023-02-16T16:16:20;102090.25;;;8.68;100.00
71964;BME280;59834;52.124;5.422;2023-02-16T16:18:48;102086.91;;;8.65;100.00
71964;BME280;59834;52.124;5.422;2023-02-16T16:21:27;102081.81;;;8.62;100.00
71964;BME280;59834;52.124;5.422;2023-02-16T16:26:30;102075.78;;;8.60;100.00
71964;BME280;59834;52.124;5.422;2023-02-16T16:28:57;102080.28;;;8.55;100.00
71964;BME280;59834;52.124;5.422;2023-02-16T16:34:02;102073.50;;;8.50;100.00
71964;BME280;59834;52.124;5.422;2023-02-16T16:39:08;102080.41;;;8.52;100.00
71964;BME280;59834;52.124;5.422;2023-02-16T16:41:35;102079.63;;;8.49;100.00
71964;BME280;59834;52.124;5.422;2023-02-16T16:44:01;102077.06;;;8.48;100.00
71964;BME280;59834;52.124;5.422;2023-02-16T16:46:29;102070.22;;;8.45;100.00
71964;BME280;59834;52.124;5.422;2023-02-16T16:48:58;102063.22;;;8.46;100.00
71964;BME280;59834;52.124;5.422;2023-02-16T16:51:41;102063.22;;;8.46;100.00
71964;BME280;59834;52.124;5.422;2023-02-16T16:54:33;102055.41;;;8.46;100.00
71964;BME280;59834;52.124;5.422;2023-02-16T16:57:17;102050.19;;;8.46;100.00
71964;BME280;59834;52.124;5.422;2023-02-16T16:59:43;102057.19;;;8.44;100.00
71964;BME280;59834;52.124;5.422;2023-02-16T17:02:10;102047.59;;;8.44;100.00
71964;BME280;59834;52.124;5.422;2023-02-16T17:04:36;102042.38;;;8.44;100.00
71964;BME280;59834;52.124;5.422;2023-02-16T17:07:03;102042.34;;;8.46;100.00
71964;BME280;59834;52.124;5.422;2023-02-16T17:09:29;102038.03;;;8.45;100.00
71964;BME280;59834;52.124;5.422;2023-02-16T17:11:56;102046.72;;;8.45;100.00
71964;BME280;59834;52.124;5.422;2023-02-16T17:14:23;102044.13;;;8.45;100.00
71964;BME280;59834;52.124;5.422;2023-02-16T17:16:52;102041.50;;;8.45;100.00
71964;BME280;59834;52.124;5.422;2023-02-16T17:19:21;102033.56;;;8.48;100.00
71964;BME280;59834;52.124;5.422;2023-02-16T17:21:48;102029.97;;;8.51;100.00
71964;BME280;59834;52.124;5.422;2023-02-16T17:24:14;102033.44;;;8.52;100.00
71964;BME280;59834;52.124;5.422;2023-02-16T17:26:41;102031.69;;;8.52;100.00
71964;BME280;59834;52.124;5.422;2023-02-16T17:29:08;102036.03;;;8.52;100.00
71964;BME280;59834;52.124;5.422;2023-02-16T17:31:35;102028.22;;;8.52;100.00
71964;BME280;59834;52.124;5.422;2023-02-16T17:34:01;102022.97;;;8.53;100.00
71964;BME280;59834;52.124;5.422;2023-02-16T17:36:28;102023.81;;;8.54;100.00
71964;BME280;59834;52.124;5.422;2023-02-16T17:38:55;102022.97;;;8.53;100.00
71964;BME280;59834;52.124;5.422;2023-02-16T17:41:27;102015.06;;;8.55;100.00
71964;BME280;59834;52.124;5.422;2023-02-16T17:43:55;102013.25;;;8.57;100.00
71964;BME280;59834;52.124;5.422;2023-02-16T17:46:22;102026.31;;;8.57;100.00
71964;BME280;59834;52.124;5.422;2023-02-16T17:48:51;102016.72;;;8.57;100.00
71964;BME280;59834;52.124;5.422;2023-02-16T17:51:20;102018.41;;;8.58;100.00
71964;BME280;59834;52.124;5.422;2023-02-16T17:53:47;102014.94;;;8.58;100.00
71964;BME280;59834;52.124;5.422;2023-02-16T17:56:15;102027.16;;;8.57;100.00
71964;BME280;59834;52.124;5.422;2023-02-16T17:58:43;102018.47;;;8.57;100.00
71964;BME280;59834;52.124;5.422;2023-02-16T18:01:12;102034.19;;;8.55;100.00
71964;BME280;59834;52.124;5.422;2023-02-16T18:03:39;102027.34;;;8.53;100.00
71964;BME280;59834;52.124;5.422;2023-02-16T18:06:05;102032.53;;;8.53;100.00
71964;BME280;59834;52.124;5.422;2023-02-16T18:08:32;102023.88;;;8.52;100.00
71964;BME280;59834;52.124;5.422;2023-02-16T18:10:59;102023.00;;;8.52;100.00
71964;BME280;59834;52.124;5.422;2023-02-16T18:13:28;102026.59;;;8.49;100.00
71964;BME280;59834;52.124;5.422;2023-02-16T18:15:56;102030.81;;;8.52;100.00
71964;BME280;59834;52.124;5.422;2023-02-16T18:18:23;102026.53;;;8.50;100.00
71964;BME280;59834;52.124;5.422;2023-02-16T18:20:50;102027.44;;;8.49;100.00
71964;BME280;59834;52.124;5.422;2023-02-16T18:23:16;102019.53;;;8.51;100.00
71964;BME280;59834;52.124;5.422;2023-02-16T18:25:43;102025.59;;;8.52;100.00
71964;BME280;59834;52.124;5.422;2023-02-16T18:28:13;102028.28;;;8.50;100.00
71964;BME280;59834;52.124;5.422;2023-02-16T18:30:44;102030.97;;;8.48;100.00
71964;BME280;59834;52.124;5.422;2023-02-16T18:33:10;102027.44;;;8.49;100.00
71964;BME280;59834;52.124;5.422;2023-02-16T18:35:37;102018.75;;;8.49;100.00
71964;BME280;59834;52.124;5.422;2023-02-16T18:38:04;102018.69;;;8.50;100.00
71964;BME280;59834;52.124;5.422;2023-02-16T18:40:30;102010.88;;;8.50;100.00
71964;BME280;59834;52.124;5.422;2023-02-16T18:42:57;102010.03;;;8.50;100.00
71964;BME280;59834;52.124;5.422;2023-02-16T18:45:23;102014.31;;;8.51;100.00
71964;BME280;59834;52.124;5.422;2023-02-16T18:47:50;102008.25;;;8.50;100.00
71964;BME280;59834;52.124;5.422;2023-02-16T18:50:16;102019.53;;;8.51;100.00
71964;BME280;59834;52.124;5.422;2023-02-16T18:52:43;102023.91;;;8.50;100.00
71964;BME280;59834;52.124;5.422;2023-02-16T18:55:11;102019.53;;;8.51;100.00
71964;BME280;59834;52.124;5.422;2023-02-16T18:57:38;102017.84;;;8.50;100.00
71964;BME280;59834;52.124;5.422;2023-02-16T19:00:05;102021.31;;;8.50;100.00
71964;BME280;59834;52.124;5.422;2023-02-16T19:02:32;102023.00;;;8.52;100.00
71964;BME280;59834;52.124;5.422;2023-02-16T19:04:59;102025.59;;;8.52;100.00
71964;BME280;59834;52.124;5.422;2023-02-16T19:07:26;102031.69;;;8.52;100.00
71964;BME280;59834;52.124;5.422;2023-02-16T19:09:53;102020.38;;;8.52;100.00
71964;BME280;59834;52.124;5.422;2023-02-16T19:12:19;102032.53;;;8.53;100.00
71964;BME280;59834;52.124;5.422;2023-02-16T19:14:46;102026.47;;;8.52;100.00
71964;BME280;59834;52.124;5.422;2023-02-16T19:17:12;102032.53;;;8.53;100.00
71964;BME280;59834;52.124;5.422;2023-02-16T19:19:39;102037.78;;;8.53;100.00
71964;BME280;59834;52.124;5.422;2023-02-16T19:22:05;102032.53;;;8.53;100.00
71964;BME280;59834;52.124;5.422;2023-02-16T19:24:32;102018.59;;;8.54;100.00
71964;BME280;59834;52.124;5.422;2023-02-16T19:27:00;102022.09;;;8.53;100.00
71964;BME280;59834;52.124;5.422;2023-02-16T19:29:27;102015.13;;;8.53;100.00
71964;BME280;59834;52.124;5.422;2023-02-16T19:31:53;102016.91;;;8.53;100.00
71964;BME280;59834;52.124;5.422;2023-02-16T19:34:20;102022.97;;;8.53;100.00
71964;BME280;59834;52.124;5.422;2023-02-16T19:36:47;102018.53;;;8.55;100.00
71964;BME280;59834;52.124;5.422;2023-02-16T19:39:13;102012.44;;;8.55;100.00
71964;BME280;59834;52.124;5.422;2023-02-16T19:41:42;102006.34;;;8.56;100.00
71964;BME280;59834;52.124;5.422;2023-02-16T19:44:12;102016.81;;;8.54;100.00
71964;BME280;59834;52.124;5.422;2023-02-16T19:46:40;102015.06;;;8.55;100.00
71964;BME280;59834;52.124;5.422;2023-02-16T19:49:06;102004.63;;;8.55;100.00
71964;BME280;59834;52.124;5.422;2023-02-16T19:51:33;102016.81;;;8.54;100.00
71964;BME280;59834;52.124;5.422;2023-02-16T19:53:59;102009.00;;;8.54;100.00
71964;BME280;59834;52.124;5.422;2023-02-16T19:56:26;102009.91;;;8.53;100.00
71964;BME280;59834;52.124;5.422;2023-02-16T19:58:55;102013.38;;;8.54;100.00
71964;BME280;59834;52.124;5.422;2023-02-16T20:01:24;102009.84;;;8.55;100.00
71964;BME280;59834;52.124;5.422;2023-02-16T20:03:52;102005.53;;;8.54;100.00
71964;BME280;59834;52.124;5.422;2023-02-16T20:06:25;102015.06;;;8.55;100.00
71964;BME280;59834;52.124;5.422;2023-02-16T20:08:52;102008.03;;;8.57;100.00
71964;BME280;59834;52.124;5.422;2023-02-16T20:11:20;102015.78;;;8.58;100.00
71964;BME280;59834;52.124;5.422;2023-02-16T20:13:47;102007.97;;;8.58;100.00
71964;BME280;59834;52.124;5.422;2023-02-16T20:16:16;102007.94;;;8.60;100.00
71964;BME280;59834;52.124;5.422;2023-02-16T20:18:43;102003.50;;;8.62;100.00
71964;BME280;59834;52.124;5.422;2023-02-16T20:21:12;101997.38;;;8.63;100.00
71964;BME280;59834;52.124;5.422;2023-02-16T20:23:39;101999.06;;;8.64;100.00
71964;BME280;59834;52.124;5.422;2023-02-16T20:26:09;102005.97;;;8.65;100.00
71964;BME280;59834;52.124;5.422;2023-02-16T20:28:36;102002.53;;;8.64;100.00
71964;BME280;59834;52.124;5.422;2023-02-16T20:31:09;101994.66;;;8.66;100.00
71964;BME280;59834;52.124;5.422;2023-02-16T20:33:37;101998.88;;;8.68;100.00
71964;BME280;59834;52.124;5.422;2023-02-16T20:36:03;101999.78;;;8.69;100.00
71964;BME280;59834;52.124;5.422;2023-02-16T20:38:30;102000.53;;;8.71;100.00
71964;BME280;59834;52.124;5.422;2023-02-16T20:40:57;102001.34;;;8.73;100.00
71964;BME280;59834;52.124;5.422;2023-02-16T20:43:23;101993.41;;;8.76;100.00
71964;BME280;59834;52.124;5.422;2023-02-16T20:45:52;101993.41;;;8.76;100.00
71964;BME280;59834;52.124;5.422;2023-02-16T20:48:19;101996.78;;;8.78;100.00
71964;BME280;59834;52.124;5.422;2023-02-16T20:50:51;101996.75;;;8.80;100.00
71964;BME280;59834;52.124;5.422;2023-02-16T20:53:21;101996.75;;;8.80;100.00
71964;BME280;59834;52.124;5.422;2023-02-16T20:55:48;101993.28;;;8.79;100.00
71964;BME280;59834;52.124;5.422;2023-02-16T20:58:16;101980.16;;;8.81;100.00
71964;BME280;59834;52.124;5.422;2023-02-16T21:00:43;101983.59;;;8.83;100.00
71964;BME280;59834;52.124;5.422;2023-02-16T21:03:10;101985.28;;;8.84;100.00
71964;BME280;59834;52.124;5.422;2023-02-16T21:05:36;101998.28;;;8.85;100.00
71964;BME280;59834;52.124;5.422;2023-02-16T21:08:08;101981.72;;;8.86;100.00
71964;BME280;59834;52.124;5.422;2023-02-16T21:10:34;101984.31;;;8.86;100.00
71964;BME280;59834;52.124;5.422;2023-02-16T21:13:01;101981.72;;;8.86;100.00
71964;BME280;59834;52.124;5.422;2023-02-16T21:15:27;101971.16;;;8.89;100.00
71964;BME280;59834;52.124;5.422;2023-02-16T21:17:54;101977.25;;;8.88;100.00
71964;BME280;59834;52.124;5.422;2023-02-16T21:20:20;101972.91;;;8.89;100.00
71964;BME280;59834;52.124;5.422;2023-02-16T21:22:47;101966.81;;;8.88;100.00
71964;BME280;59834;52.124;5.422;2023-02-16T21:25:14;101977.25;;;8.88;100.00